Council, Virginia
Current Conditions -  °F | °C
As of 9:35 AM on Tuesday 27 Jan 2015 (Local Time) from KJFZ Reporting Station
Overcast Overcast  
Wind Chill: 11°   Ceiling: 1700
Heat Index: 21°   Visibility: 10mi
Dew Point: 14°   Wind: 9mph
Humidity: 72%   Direction: 330°NNW
Pressure: 29.85"   Gusts: NA
Location:  37.0328°N, 82.0042°W
Report Text: KJFZ 271435Z AUTO 33008KT 10SM BKN017 OVC055 M06/M10 A2985 RMK AO2 T10591102
Loading
Personal Weather Stations






























Interactive Weather Map New forecast layout! Learn more

10-Day Weather Forecast

Advertisements
Track Severe Weather on mobile